Botley, United Kingdom
Current Conditions -  °F | °C
As of 9:50 PM on Tuesday 27 Jan 2015 (Local Time) from EGHI Reporting Station
Broken Clouds Broken Clouds  
Wind Chill: 39°   Ceiling: 2900
Heat Index: 43°   Visibility: 6mi
Dew Point: 36°   Wind: 6mph
Humidity: 76%   Direction: 240°WSW
Pressure: 30.18"   Gusts: NA
Location:  50.91°N, 1.27°W
Report Text: EGHI 272150Z 24005KT 210V280 9999 BKN029 06/02 Q1022
Loading
Personal Weather Stations






























Interactive Weather Map New forecast layout! Learn more

10-Day Weather Forecast

Advertisements
Track Severe Weather on mobile